createdAt,value
2023-05-10T00:00:58.703Z,15.52
2023-05-10T00:06:00.378Z,15.34
2023-05-10T00:11:01.897Z,15.35
2023-05-10T00:16:03.466Z,15.37
2023-05-10T00:21:05.428Z,15.26
2023-05-10T00:26:06.764Z,15.20
2023-05-10T00:31:08.268Z,15.18
2023-05-10T00:36:09.817Z,15.03
2023-05-10T00:41:11.205Z,14.97
2023-05-10T00:46:13.177Z,14.96
2023-05-10T00:51:14.923Z,15.04
2023-05-10T00:56:16.968Z,14.95
2023-05-10T01:01:18.424Z,15.03
2023-05-10T01:06:19.844Z,15.05
2023-05-10T01:11:21.897Z,14.91
2023-05-10T01:16:24.508Z,14.85
2023-05-10T01:21:39.208Z,14.72
2023-05-10T01:26:55.222Z,14.77
2023-05-10T01:32:04.440Z,14.86
2023-05-10T01:37:11.802Z,14.91
2023-05-10T01:42:20.832Z,14.85
2023-05-10T01:47:36.426Z,14.84
2023-05-10T01:52:42.079Z,14.89
2023-05-10T01:57:45.510Z,14.87
2023-05-10T02:02:52.865Z,14.78
2023-05-10T02:07:55.092Z,14.81
2023-05-10T02:12:59.794Z,14.83
2023-05-10T02:18:04.749Z,14.83
2023-05-10T02:23:08.195Z,14.88
2023-05-10T02:28:11.402Z,14.89
2023-05-10T02:33:13.061Z,14.81
2023-05-10T02:38:15.707Z,14.76
2023-05-10T02:43:18.940Z,14.75
2023-05-10T02:48:20.450Z,14.74
2023-05-10T02:53:34.306Z,14.72
2023-05-10T02:58:36.440Z,14.67
2023-05-10T03:03:37.798Z,14.69
2023-05-10T03:08:39.465Z,14.62
2023-05-10T03:13:50.790Z,14.62
2023-05-10T03:19:02.382Z,14.64
2023-05-10T03:24:09.071Z,14.64
2023-05-10T03:29:11.473Z,14.74
2023-05-10T03:34:12.919Z,14.66
2023-05-10T03:39:14.295Z,14.67
2023-05-10T03:44:15.782Z,14.64
2023-05-10T03:49:17.239Z,14.65
2023-05-10T03:54:18.640Z,14.67
2023-05-10T03:59:20.195Z,14.70
2023-05-10T04:04:22.439Z,14.78
2023-05-10T04:09:23.805Z,14.78
2023-05-10T04:14:25.512Z,14.84
2023-05-10T04:19:33.128Z,14.93
2023-05-10T04:24:34.485Z,14.99
2023-05-10T04:29:35.853Z,15.01
2023-05-10T04:34:38.159Z,15.10
2023-05-10T04:39:42.005Z,15.11
2023-05-10T04:44:43.729Z,15.10
2023-05-10T04:49:45.099Z,15.22
2023-05-10T04:54:46.551Z,15.19
2023-05-10T04:59:50.265Z,15.34
2023-05-10T05:04:52.075Z,15.31
2023-05-10T05:09:53.419Z,15.23
2023-05-10T05:14:54.786Z,15.23
2023-05-10T05:19:56.643Z,15.33
2023-05-10T05:24:59.201Z,15.45
2023-05-10T05:30:00.648Z,15.51
2023-05-10T05:35:02.194Z,15.52
2023-05-10T05:40:04.308Z,15.47
2023-05-10T05:45:06.546Z,15.55
2023-05-10T05:50:08.269Z,15.53
2023-05-10T05:55:09.641Z,15.59
2023-05-10T06:00:11.422Z,15.60
2023-05-10T06:05:12.840Z,15.57
2023-05-10T06:10:14.200Z,15.67
2023-05-10T06:15:15.986Z,15.77
2023-05-10T06:20:17.636Z,15.80
2023-05-10T06:25:19.342Z,15.77
2023-05-10T06:30:21.162Z,15.82
2023-05-10T06:35:22.830Z,15.98
2023-05-10T06:40:24.188Z,16.11
2023-05-10T06:45:25.562Z,16.01
2023-05-10T06:50:26.979Z,16.05
2023-05-10T06:55:28.903Z,16.22
2023-05-10T07:00:30.471Z,16.30
2023-05-10T07:05:32.352Z,16.42
2023-05-10T07:10:33.904Z,16.57
2023-05-10T07:15:35.222Z,16.76
2023-05-10T07:20:36.579Z,16.71
2023-05-10T07:25:38.545Z,16.83
2023-05-10T07:30:39.976Z,16.71
2023-05-10T07:35:41.547Z,16.77
2023-05-10T07:40:43.110Z,16.79
2023-05-10T07:45:44.554Z,16.89
2023-05-10T07:50:45.886Z,16.94
2023-05-10T07:55:57.824Z,17.05
2023-05-10T08:00:59.182Z,17.09
2023-05-10T08:06:00.571Z,17.20
2023-05-10T08:11:01.982Z,17.28
2023-05-10T08:16:03.472Z,17.47
2023-05-10T08:21:05.159Z,17.49
2023-05-10T08:26:06.586Z,17.60
2023-05-10T08:31:08.000Z,17.82
2023-05-10T08:36:09.638Z,18.04
2023-05-10T08:41:11.958Z,18.07
2023-05-10T08:46:18.276Z,18.12
2023-05-10T08:51:23.209Z,18.20
2023-05-10T08:56:25.044Z,17.54
2023-05-10T09:01:28.775Z,17.24
2023-05-10T09:06:30.723Z,17.27
2023-05-10T09:11:32.430Z,17.28
2023-05-10T09:16:33.849Z,17.04
2023-05-10T09:21:39.721Z,16.33
2023-05-10T09:26:49.246Z,15.96
2023-05-10T09:31:56.167Z,15.96
2023-05-10T09:37:01.563Z,16.14
2023-05-10T09:42:08.506Z,16.17
2023-05-10T09:47:12.849Z,16.17
2023-05-10T09:52:14.347Z,16.34
2023-05-10T09:57:23.043Z,16.51
2023-05-10T10:02:30.264Z,16.92
2023-05-10T10:07:32.619Z,17.28
2023-05-10T10:12:34.579Z,17.61
2023-05-10T10:17:39.470Z,17.76
2023-05-10T10:22:41.080Z,17.77
2023-05-10T10:27:54.313Z,17.68
2023-05-10T10:33:32.967Z,17.58
2023-05-10T10:38:39.664Z,17.52
2023-05-10T10:43:41.036Z,17.76
2023-05-10T10:48:49.280Z,17.86
2023-05-10T10:53:50.718Z,17.77
2023-05-10T10:58:54.143Z,17.73
2023-05-10T11:04:19.458Z,17.12
2023-05-10T11:09:25.597Z,16.49
2023-05-10T11:14:26.992Z,15.99
2023-05-10T11:19:28.983Z,15.84
2023-05-10T11:24:30.480Z,15.75
2023-05-10T11:29:31.870Z,15.55
2023-05-10T11:34:36.114Z,15.62
2023-05-10T11:39:37.851Z,15.79
2023-05-10T11:44:39.260Z,16.02
2023-05-10T11:49:44.763Z,16.10
2023-05-10T11:54:55.698Z,15.98
2023-05-10T11:59:58.341Z,16.02
2023-05-10T12:04:59.959Z,16.21
2023-05-10T12:10:16.219Z,16.56
2023-05-10T12:15:20.670Z,16.73
2023-05-10T12:20:23.864Z,16.81
2023-05-10T12:25:31.408Z,17.05
2023-05-10T12:30:34.181Z,17.07
2023-05-10T12:35:45.573Z,17.30
2023-05-10T12:40:46.930Z,17.60
2023-05-10T12:45:49.654Z,18.01
2023-05-10T12:50:51.449Z,18.45
2023-05-10T12:55:52.900Z,18.66
2023-05-10T13:00:54.748Z,18.61
2023-05-10T13:05:56.144Z,18.91
2023-05-10T13:10:57.494Z,19.34
2023-05-10T13:15:58.818Z,19.99
2023-05-10T13:21:00.264Z,20.06
2023-05-10T13:26:01.600Z,20.72
2023-05-10T13:31:02.950Z,20.18
2023-05-10T13:36:04.634Z,20.03
2023-05-10T13:41:05.962Z,19.35
2023-05-10T13:46:07.353Z,19.09
2023-05-10T13:51:08.850Z,18.85
2023-05-10T13:56:10.248Z,19.04
2023-05-10T14:01:12.900Z,19.10
2023-05-10T14:06:14.545Z,19.03
2023-05-10T14:11:16.190Z,19.12
2023-05-10T14:16:17.608Z,19.48
2023-05-10T14:21:19.012Z,19.67
2023-05-10T14:26:21.606Z,19.71
2023-05-10T14:31:25.458Z,19.88
2023-05-10T14:36:26.928Z,19.97
2023-05-10T14:41:28.518Z,19.83
2023-05-10T14:46:30.802Z,19.95
2023-05-10T14:51:32.621Z,20.12
2023-05-10T14:56:34.052Z,20.03
2023-05-10T15:01:38.301Z,20.10
2023-05-10T15:06:40.116Z,20.79
2023-05-10T15:11:41.440Z,21.30
2023-05-10T15:16:42.857Z,21.51
2023-05-10T15:21:45.454Z,21.91
2023-05-10T15:26:46.881Z,22.34
2023-05-10T15:31:49.019Z,22.55
2023-05-10T15:36:50.430Z,22.82
2023-05-10T15:41:51.963Z,23.28
2023-05-10T15:46:53.343Z,23.58
2023-05-10T15:51:54.726Z,23.64
2023-05-10T15:56:56.207Z,23.83
2023-05-10T16:01:57.609Z,23.40
2023-05-10T16:06:58.997Z,23.20
2023-05-10T16:12:00.402Z,23.14
2023-05-10T16:17:03.147Z,22.59
2023-05-10T16:22:05.054Z,22.39
2023-05-10T16:27:06.971Z,22.20
2023-05-10T16:32:08.306Z,21.80
2023-05-10T16:37:09.864Z,22.07
2023-05-10T16:42:11.210Z,22.09
2023-05-10T16:47:12.567Z,21.92
2023-05-10T16:52:13.916Z,21.98
2023-05-10T16:57:15.321Z,21.94
2023-05-10T17:02:16.852Z,21.91
2023-05-10T17:07:18.973Z,21.66
2023-05-10T17:12:20.392Z,21.60
2023-05-10T17:17:21.914Z,21.51
2023-05-10T17:22:23.331Z,21.43
2023-05-10T17:27:24.690Z,21.25
2023-05-10T17:32:26.177Z,21.08
2023-05-10T17:37:27.642Z,20.88
2023-05-10T17:42:28.994Z,20.71
2023-05-10T17:47:31.337Z,20.59
2023-05-10T17:52:33.668Z,20.46
2023-05-10T17:57:37.915Z,20.35
2023-05-10T18:02:39.267Z,20.20
2023-05-10T18:07:40.618Z,20.16
2023-05-10T18:12:42.063Z,20.08
2023-05-10T18:17:43.432Z,19.98
2023-05-10T18:22:44.787Z,19.88
2023-05-10T18:27:46.137Z,19.75
2023-05-10T18:32:47.662Z,19.68
2023-05-10T18:37:49.083Z,19.59
2023-05-10T18:42:50.552Z,19.56
2023-05-10T18:47:51.906Z,19.46
2023-05-10T18:52:53.632Z,19.38
2023-05-10T18:57:55.080Z,19.30
2023-05-10T19:02:56.553Z,19.25
2023-05-10T19:07:57.939Z,19.17
2023-05-10T19:12:59.279Z,18.59
2023-05-10T19:18:00.718Z,18.36
2023-05-10T19:28:10.329Z,18.22
2023-05-10T19:33:12.531Z,17.86
2023-05-10T19:38:13.993Z,17.73
2023-05-10T19:43:15.996Z,17.52
2023-05-10T19:48:17.500Z,17.52
2023-05-10T19:53:18.907Z,17.51
2023-05-10T19:58:20.253Z,17.34
2023-05-10T20:03:21.623Z,17.18
2023-05-10T20:08:22.976Z,17.04
2023-05-10T20:13:24.922Z,17.07
2023-05-10T20:18:26.808Z,17.02
2023-05-10T20:23:28.182Z,17.01
2023-05-10T20:28:29.810Z,16.93
2023-05-10T20:33:31.245Z,16.85
2023-05-10T20:38:32.655Z,16.81
2023-05-10T20:43:34.059Z,16.77
2023-05-10T20:48:35.502Z,16.67
2023-05-10T20:53:36.891Z,16.59
2023-05-10T20:58:38.364Z,16.50
2023-05-10T21:03:39.719Z,16.43
2023-05-10T21:08:41.059Z,16.18
2023-05-10T21:13:42.415Z,16.09
2023-05-10T21:18:43.827Z,16.06
2023-05-10T21:23:48.338Z,16.01
2023-05-10T21:28:49.738Z,15.96
2023-05-10T21:33:51.402Z,15.98
2023-05-10T21:38:52.816Z,15.93
2023-05-10T21:43:54.203Z,15.88
2023-05-10T21:48:55.548Z,15.82
2023-05-10T21:53:56.972Z,15.70
2023-05-10T21:58:58.303Z,15.69
2023-05-10T22:03:59.968Z,15.67
2023-05-10T22:09:01.411Z,15.62
2023-05-10T22:14:02.830Z,15.51
2023-05-10T22:19:04.371Z,15.50
2023-05-10T22:24:05.998Z,15.45
2023-05-10T22:29:07.375Z,15.39
2023-05-10T22:34:08.747Z,15.30
2023-05-10T22:39:10.104Z,15.26
2023-05-10T22:44:11.414Z,15.18
2023-05-10T22:49:13.254Z,15.11
2023-05-10T22:54:14.665Z,14.98
2023-05-10T22:59:16.483Z,14.98
2023-05-10T23:04:17.948Z,14.96
2023-05-10T23:09:19.310Z,14.85
2023-05-10T23:14:20.629Z,14.77
2023-05-10T23:19:21.948Z,14.64
2023-05-10T23:24:23.321Z,14.59
2023-05-10T23:29:26.183Z,14.47
2023-05-10T23:34:27.538Z,14.39
2023-05-10T23:39:28.916Z,14.24
2023-05-10T23:44:30.323Z,14.22
2023-05-10T23:49:31.640Z,14.14
2023-05-10T23:54:33.214Z,14.04
2023-05-10T23:59:34.526Z,14.11
